sensor_id;sensor_type;location;lat;lon;timestamp;temperature;humidity
25512;DHT22;13414;44.534;18.700;2023-02-28T00:00:38;2.10;99.90
25512;DHT22;13414;44.534;18.700;2023-02-28T00:03:05;2.00;99.90
25512;DHT22;13414;44.534;18.700;2023-02-28T00:05:33;2.00;99.90
25512;DHT22;13414;44.534;18.700;2023-02-28T00:08:01;2.00;99.90
25512;DHT22;13414;44.534;18.700;2023-02-28T00:10:30;1.90;99.90
25512;DHT22;13414;44.534;18.700;2023-02-28T00:13:01;1.90;99.90
25512;DHT22;13414;44.534;18.700;2023-02-28T00:15:29;2.00;99.90
25512;DHT22;13414;44.534;18.700;2023-02-28T00:17:57;2.00;99.90
25512;DHT22;13414;44.534;18.700;2023-02-28T00:20:25;2.00;99.90
25512;DHT22;13414;44.534;18.700;2023-02-28T00:22:53;2.00;99.90
25512;DHT22;13414;44.534;18.700;2023-02-28T00:25:23;2.10;99.90
25512;DHT22;13414;44.534;18.700;2023-02-28T00:27:52;2.10;99.90
25512;DHT22;13414;44.534;18.700;2023-02-28T00:30:21;2.10;99.90
25512;DHT22;13414;44.534;18.700;2023-02-28T00:32:49;2.10;99.90
25512;DHT22;13414;44.534;18.700;2023-02-28T00:35:16;2.10;99.90
25512;DHT22;13414;44.534;18.700;2023-02-28T00:37:44;2.20;99.90
25512;DHT22;13414;44.534;18.700;2023-02-28T00:40:12;2.20;99.90
25512;DHT22;13414;44.534;18.700;2023-02-28T00:42:39;2.20;99.90
25512;DHT22;13414;44.534;18.700;2023-02-28T00:45:09;2.20;99.90
25512;DHT22;13414;44.534;18.700;2023-02-28T00:47:37;2.10;99.90
25512;DHT22;13414;44.534;18.700;2023-02-28T00:50:06;2.00;99.90
25512;DHT22;13414;44.534;18.700;2023-02-28T00:52:33;2.10;99.90
25512;DHT22;13414;44.534;18.700;2023-02-28T00:55:01;2.00;99.90
25512;DHT22;13414;44.534;18.700;2023-02-28T00:57:28;2.10;99.90
25512;DHT22;13414;44.534;18.700;2023-02-28T00:59:55;2.10;99.90
25512;DHT22;13414;44.534;18.700;2023-02-28T01:02:24;2.10;99.90
25512;DHT22;13414;44.534;18.700;2023-02-28T01:04:52;2.10;99.90
25512;DHT22;13414;44.534;18.700;2023-02-28T01:07:20;2.10;99.90
25512;DHT22;13414;44.534;18.700;2023-02-28T01:09:47;2.10;99.90
25512;DHT22;13414;44.534;18.700;2023-02-28T01:12:15;2.10;99.90
25512;DHT22;13414;44.534;18.700;2023-02-28T01:14:42;2.10;99.90
25512;DHT22;13414;44.534;18.700;2023-02-28T01:17:10;2.00;99.90
25512;DHT22;13414;44.534;18.700;2023-02-28T01:19:39;2.00;99.90
25512;DHT22;13414;44.534;18.700;2023-02-28T01:22:07;2.10;99.90
25512;DHT22;13414;44.534;18.700;2023-02-28T01:24:34;2.10;99.90
25512;DHT22;13414;44.534;18.700;2023-02-28T01:27:02;2.10;99.90
25512;DHT22;13414;44.534;18.700;2023-02-28T01:29:30;2.20;99.90
25512;DHT22;13414;44.534;18.700;2023-02-28T01:31:57;2.10;99.90
25512;DHT22;13414;44.534;18.700;2023-02-28T01:34:25;2.20;99.90
25512;DHT22;13414;44.534;18.700;2023-02-28T01:36:54;2.30;99.90
25512;DHT22;13414;44.534;18.700;2023-02-28T01:39:24;2.30;99.90
25512;DHT22;13414;44.534;18.700;2023-02-28T01:41:52;2.20;99.90
25512;DHT22;13414;44.534;18.700;2023-02-28T01:44:55;2.20;99.90
25512;DHT22;13414;44.534;18.700;2023-02-28T01:47:27;2.20;99.90
25512;DHT22;13414;44.534;18.700;2023-02-28T01:50:09;2.30;99.90
25512;DHT22;13414;44.534;18.700;2023-02-28T01:52:38;2.30;99.90
25512;DHT22;13414;44.534;18.700;2023-02-28T01:55:07;2.30;99.90
25512;DHT22;13414;44.534;18.700;2023-02-28T01:57:38;2.40;99.90
25512;DHT22;13414;44.534;18.700;2023-02-28T02:00:09;2.40;99.90
25512;DHT22;13414;44.534;18.700;2023-02-28T02:02:39;2.40;99.90
25512;DHT22;13414;44.534;18.700;2023-02-28T02:05:12;2.30;99.90
25512;DHT22;13414;44.534;18.700;2023-02-28T02:07:43;2.30;99.90
25512;DHT22;13414;44.534;18.700;2023-02-28T02:10:15;2.20;99.90
25512;DHT22;13414;44.534;18.700;2023-02-28T02:12:57;2.20;99.90
25512;DHT22;13414;44.534;18.700;2023-02-28T02:15:32;2.20;99.90
25512;DHT22;13414;44.534;18.700;2023-02-28T02:18:04;2.30;99.90
25512;DHT22;13414;44.534;18.700;2023-02-28T02:24:11;2.20;99.90
25512;DHT22;13414;44.534;18.700;2023-02-28T02:27:10;2.20;99.90
25512;DHT22;13414;44.534;18.700;2023-02-28T02:33:09;2.30;99.90
25512;DHT22;13414;44.534;18.700;2023-02-28T02:35:48;2.30;99.90
25512;DHT22;13414;44.534;18.700;2023-02-28T02:38:23;2.20;99.90
25512;DHT22;13414;44.534;18.700;2023-02-28T02:41:03;2.10;99.90
25512;DHT22;13414;44.534;18.700;2023-02-28T02:43:36;2.10;99.90
25512;DHT22;13414;44.534;18.700;2023-02-28T02:46:10;2.00;99.90
25512;DHT22;13414;44.534;18.700;2023-02-28T02:48:40;2.00;99.90
25512;DHT22;13414;44.534;18.700;2023-02-28T02:51:14;2.10;99.90
25512;DHT22;13414;44.534;18.700;2023-02-28T02:53:46;2.10;99.90
25512;DHT22;13414;44.534;18.700;2023-02-28T02:56:17;2.20;99.90
25512;DHT22;13414;44.534;18.700;2023-02-28T02:58:48;2.20;99.90
25512;DHT22;13414;44.534;18.700;2023-02-28T03:01:20;2.30;99.90
25512;DHT22;13414;44.534;18.700;2023-02-28T03:03:56;2.30;99.90
25512;DHT22;13414;44.534;18.700;2023-02-28T03:06:25;2.30;99.90
25512;DHT22;13414;44.534;18.700;2023-02-28T03:08:53;2.20;99.90
25512;DHT22;13414;44.534;18.700;2023-02-28T03:11:22;2.10;99.90
25512;DHT22;13414;44.534;18.700;2023-02-28T03:14:04;2.10;99.90
25512;DHT22;13414;44.534;18.700;2023-02-28T03:16:51;2.20;99.90
25512;DHT22;13414;44.534;18.700;2023-02-28T03:19:32;2.20;99.90
25512;DHT22;13414;44.534;18.700;2023-02-28T03:22:23;2.30;99.90
25512;DHT22;13414;44.534;18.700;2023-02-28T03:24:56;2.30;99.90
25512;DHT22;13414;44.534;18.700;2023-02-28T03:27:29;2.30;99.90
25512;DHT22;13414;44.534;18.700;2023-02-28T03:30:02;2.20;99.90
25512;DHT22;13414;44.534;18.700;2023-02-28T03:32:34;2.20;99.90
25512;DHT22;13414;44.534;18.700;2023-02-28T03:35:08;2.30;99.90
25512;DHT22;13414;44.534;18.700;2023-02-28T03:37:42;2.30;99.90
25512;DHT22;13414;44.534;18.700;2023-02-28T03:40:14;2.30;99.90
25512;DHT22;13414;44.534;18.700;2023-02-28T03:42:45;2.20;99.90
25512;DHT22;13414;44.534;18.700;2023-02-28T03:45:18;2.10;99.90
25512;DHT22;13414;44.534;18.700;2023-02-28T03:47:51;2.10;99.90
25512;DHT22;13414;44.534;18.700;2023-02-28T03:50:22;2.00;99.90
25512;DHT22;13414;44.534;18.700;2023-02-28T03:52:56;1.90;99.90
25512;DHT22;13414;44.534;18.700;2023-02-28T03:55:29;1.90;99.90
25512;DHT22;13414;44.534;18.700;2023-02-28T03:58:01;1.90;99.90
25512;DHT22;13414;44.534;18.700;2023-02-28T04:00:35;1.90;99.90
25512;DHT22;13414;44.534;18.700;2023-02-28T04:03:04;1.90;99.90
25512;DHT22;13414;44.534;18.700;2023-02-28T04:05:32;1.90;99.90
25512;DHT22;13414;44.534;18.700;2023-02-28T04:08:08;1.90;99.90
25512;DHT22;13414;44.534;18.700;2023-02-28T04:10:36;1.80;99.90
25512;DHT22;13414;44.534;18.700;2023-02-28T04:13:03;1.80;99.90
25512;DHT22;13414;44.534;18.700;2023-02-28T04:15:31;1.80;99.90
25512;DHT22;13414;44.534;18.700;2023-02-28T04:17:58;1.80;99.90
25512;DHT22;13414;44.534;18.700;2023-02-28T04:20:26;1.80;99.90
25512;DHT22;13414;44.534;18.700;2023-02-28T04:22:53;1.80;99.90
25512;DHT22;13414;44.534;18.700;2023-02-28T04:25:22;1.80;99.90
25512;DHT22;13414;44.534;18.700;2023-02-28T04:27:49;1.80;99.90
25512;DHT22;13414;44.534;18.700;2023-02-28T04:30:17;1.80;99.90
25512;DHT22;13414;44.534;18.700;2023-02-28T04:32:44;1.80;99.90
25512;DHT22;13414;44.534;18.700;2023-02-28T04:35:12;1.70;99.90
25512;DHT22;13414;44.534;18.700;2023-02-28T04:37:40;1.70;99.90
25512;DHT22;13414;44.534;18.700;2023-02-28T04:40:08;1.60;99.90
25512;DHT22;13414;44.534;18.700;2023-02-28T04:42:37;1.60;99.90
25512;DHT22;13414;44.534;18.700;2023-02-28T04:45:06;1.60;99.90
25512;DHT22;13414;44.534;18.700;2023-02-28T04:47:36;1.60;99.90
25512;DHT22;13414;44.534;18.700;2023-02-28T04:50:04;1.60;99.90
25512;DHT22;13414;44.534;18.700;2023-02-28T04:52:32;1.50;99.90
25512;DHT22;13414;44.534;18.700;2023-02-28T04:54:59;1.60;99.90
25512;DHT22;13414;44.534;18.700;2023-02-28T04:57:28;1.70;99.90
25512;DHT22;13414;44.534;18.700;2023-02-28T04:59:57;1.70;99.90
25512;DHT22;13414;44.534;18.700;2023-02-28T05:02:25;1.80;99.90
25512;DHT22;13414;44.534;18.700;2023-02-28T05:04:52;1.80;99.90
25512;DHT22;13414;44.534;18.700;2023-02-28T05:07:20;1.70;99.90
25512;DHT22;13414;44.534;18.700;2023-02-28T05:09:48;1.70;99.90
25512;DHT22;13414;44.534;18.700;2023-02-28T05:12:15;1.80;99.90
25512;DHT22;13414;44.534;18.700;2023-02-28T05:14:43;1.80;99.90
25512;DHT22;13414;44.534;18.700;2023-02-28T05:17:12;1.90;99.90
25512;DHT22;13414;44.534;18.700;2023-02-28T05:19:40;2.00;99.90
25512;DHT22;13414;44.534;18.700;2023-02-28T05:22:13;2.00;99.90
25512;DHT22;13414;44.534;18.700;2023-02-28T05:24:41;2.00;99.90
25512;DHT22;13414;44.534;18.700;2023-02-28T05:27:09;2.00;99.90
25512;DHT22;13414;44.534;18.700;2023-02-28T05:29:37;2.00;99.90
25512;DHT22;13414;44.534;18.700;2023-02-28T05:32:09;2.00;99.90
25512;DHT22;13414;44.534;18.700;2023-02-28T05:34:39;2.00;99.90
25512;DHT22;13414;44.534;18.700;2023-02-28T05:37:11;2.00;99.90
25512;DHT22;13414;44.534;18.700;2023-02-28T05:39:39;2.10;99.90
25512;DHT22;13414;44.534;18.700;2023-02-28T05:42:07;2.20;99.90
25512;DHT22;13414;44.534;18.700;2023-02-28T05:44:35;2.20;99.90
25512;DHT22;13414;44.534;18.700;2023-02-28T05:47:03;2.20;99.90
25512;DHT22;13414;44.534;18.700;2023-02-28T05:49:30;2.30;99.90
25512;DHT22;13414;44.534;18.700;2023-02-28T05:51:59;2.30;99.90
25512;DHT22;13414;44.534;18.700;2023-02-28T05:54:27;2.40;99.90
25512;DHT22;13414;44.534;18.700;2023-02-28T05:56:54;2.40;99.90
25512;DHT22;13414;44.534;18.700;2023-02-28T05:59:22;2.30;99.90
25512;DHT22;13414;44.534;18.700;2023-02-28T06:01:49;2.30;99.90
25512;DHT22;13414;44.534;18.700;2023-02-28T06:04:20;2.40;99.90
25512;DHT22;13414;44.534;18.700;2023-02-28T06:06:48;2.40;99.90
25512;DHT22;13414;44.534;18.700;2023-02-28T06:09:18;2.50;99.90
25512;DHT22;13414;44.534;18.700;2023-02-28T06:11:46;2.50;99.90
25512;DHT22;13414;44.534;18.700;2023-02-28T06:14:16;2.50;99.90
25512;DHT22;13414;44.534;18.700;2023-02-28T06:16:44;2.50;99.90
25512;DHT22;13414;44.534;18.700;2023-02-28T06:19:12;2.50;99.90
25512;DHT22;13414;44.534;18.700;2023-02-28T06:21:41;2.50;99.90
25512;DHT22;13414;44.534;18.700;2023-02-28T06:24:08;2.50;99.90
25512;DHT22;13414;44.534;18.700;2023-02-28T06:26:37;2.60;99.90
25512;DHT22;13414;44.534;18.700;2023-02-28T06:29:05;2.60;99.90
25512;DHT22;13414;44.534;18.700;2023-02-28T06:31:33;2.60;99.90
25512;DHT22;13414;44.534;18.700;2023-02-28T06:34:00;2.50;99.90
25512;DHT22;13414;44.534;18.700;2023-02-28T06:36:28;2.60;99.90
25512;DHT22;13414;44.534;18.700;2023-02-28T06:38:57;2.70;99.90
25512;DHT22;13414;44.534;18.700;2023-02-28T06:41:25;2.80;99.90
25512;DHT22;13414;44.534;18.700;2023-02-28T06:43:54;2.80;99.90
25512;DHT22;13414;44.534;18.700;2023-02-28T06:46:22;2.80;99.90
25512;DHT22;13414;44.534;18.700;2023-02-28T06:48:50;2.80;99.90
25512;DHT22;13414;44.534;18.700;2023-02-28T06:51:19;2.90;99.90
25512;DHT22;13414;44.534;18.700;2023-02-28T06:53:48;2.80;99.90
25512;DHT22;13414;44.534;18.700;2023-02-28T06:56:16;2.90;99.90
25512;DHT22;13414;44.534;18.700;2023-02-28T06:58:46;2.90;99.90
25512;DHT22;13414;44.534;18.700;2023-02-28T07:01:16;3.00;99.90
25512;DHT22;13414;44.534;18.700;2023-02-28T07:03:45;3.10;99.90
25512;DHT22;13414;44.534;18.700;2023-02-28T07:06:12;3.00;99.90
25512;DHT22;13414;44.534;18.700;2023-02-28T07:08:40;3.00;99.90
25512;DHT22;13414;44.534;18.700;2023-02-28T07:11:07;3.00;99.90
25512;DHT22;13414;44.534;18.700;2023-02-28T07:13:35;3.10;99.90
25512;DHT22;13414;44.534;18.700;2023-02-28T07:16:05;3.20;99.90
25512;DHT22;13414;44.534;18.700;2023-02-28T07:18:35;3.30;99.90
25512;DHT22;13414;44.534;18.700;2023-02-28T07:21:04;3.50;99.90
25512;DHT22;13414;44.534;18.700;2023-02-28T07:23:31;3.60;99.90
25512;DHT22;13414;44.534;18.700;2023-02-28T07:25:59;3.70;99.90
25512;DHT22;13414;44.534;18.700;2023-02-28T07:28:27;3.60;99.90
25512;DHT22;13414;44.534;18.700;2023-02-28T07:30:54;3.50;99.90
25512;DHT22;13414;44.534;18.700;2023-02-28T07:33:22;3.60;99.90
25512;DHT22;13414;44.534;18.700;2023-02-28T07:35:51;3.80;99.90
25512;DHT22;13414;44.534;18.700;2023-02-28T07:38:18;3.90;99.90
25512;DHT22;13414;44.534;18.700;2023-02-28T07:40:46;4.00;99.90
25512;DHT22;13414;44.534;18.700;2023-02-28T07:43:13;4.00;99.90
25512;DHT22;13414;44.534;18.700;2023-02-28T07:45:41;4.20;99.90
25512;DHT22;13414;44.534;18.700;2023-02-28T07:48:08;4.50;99.90
25512;DHT22;13414;44.534;18.700;2023-02-28T07:50:36;4.60;99.90
25512;DHT22;13414;44.534;18.700;2023-02-28T07:53:05;4.90;99.90
25512;DHT22;13414;44.534;18.700;2023-02-28T07:55:32;5.00;99.90
25512;DHT22;13414;44.534;18.700;2023-02-28T07:58:00;5.00;99.90
25512;DHT22;13414;44.534;18.700;2023-02-28T08:00:27;5.20;99.90
25512;DHT22;13414;44.534;18.700;2023-02-28T08:02:56;5.10;99.90
25512;DHT22;13414;44.534;18.700;2023-02-28T08:05:24;5.00;99.90
25512;DHT22;13414;44.534;18.700;2023-02-28T08:07:51;5.00;99.90
25512;DHT22;13414;44.534;18.700;2023-02-28T08:10:20;4.90;99.90
25512;DHT22;13414;44.534;18.700;2023-02-28T08:12:48;4.90;99.90
25512;DHT22;13414;44.534;18.700;2023-02-28T08:15:15;5.00;99.90
25512;DHT22;13414;44.534;18.700;2023-02-28T08:17:43;5.20;99.90
25512;DHT22;13414;44.534;18.700;2023-02-28T08:20:11;5.40;99.90
25512;DHT22;13414;44.534;18.700;2023-02-28T08:22:39;5.40;99.90
25512;DHT22;13414;44.534;18.700;2023-02-28T08:25:08;5.50;99.90
25512;DHT22;13414;44.534;18.700;2023-02-28T08:27:37;5.70;99.90
25512;DHT22;13414;44.534;18.700;2023-02-28T08:30:06;5.80;99.90
25512;DHT22;13414;44.534;18.700;2023-02-28T08:32:33;5.70;99.90
25512;DHT22;13414;44.534;18.700;2023-02-28T08:35:01;5.70;99.90
25512;DHT22;13414;44.534;18.700;2023-02-28T08:37:29;5.80;99.90
25512;DHT22;13414;44.534;18.700;2023-02-28T08:39:56;5.70;99.90
25512;DHT22;13414;44.534;18.700;2023-02-28T08:42:24;5.80;99.90
25512;DHT22;13414;44.534;18.700;2023-02-28T08:44:53;5.80;99.90
25512;DHT22;13414;44.534;18.700;2023-02-28T08:47:20;5.80;99.90
25512;DHT22;13414;44.534;18.700;2023-02-28T08:49:47;5.80;99.90
25512;DHT22;13414;44.534;18.700;2023-02-28T08:52:15;5.80;99.90
25512;DHT22;13414;44.534;18.700;2023-02-28T08:54:42;5.90;99.90
25512;DHT22;13414;44.534;18.700;2023-02-28T08:57:10;5.90;99.90
25512;DHT22;13414;44.534;18.700;2023-02-28T08:59:37;5.80;99.90
25512;DHT22;13414;44.534;18.700;2023-02-28T09:02:08;5.80;99.90
25512;DHT22;13414;44.534;18.700;2023-02-28T09:04:35;5.70;99.90
25512;DHT22;13414;44.534;18.700;2023-02-28T09:07:03;5.90;99.90
25512;DHT22;13414;44.534;18.700;2023-02-28T09:09:30;5.90;99.90
25512;DHT22;13414;44.534;18.700;2023-02-28T09:11:58;6.00;99.90
25512;DHT22;13414;44.534;18.700;2023-02-28T09:14:25;6.10;99.90
25512;DHT22;13414;44.534;18.700;2023-02-28T09:16:53;6.30;99.90
25512;DHT22;13414;44.534;18.700;2023-02-28T09:19:22;6.50;93.30
25512;DHT22;13414;44.534;18.700;2023-02-28T09:21:49;6.70;99.90
25512;DHT22;13414;44.534;18.700;2023-02-28T09:24:18;6.80;1.00
25512;DHT22;13414;44.534;18.700;2023-02-28T09:26:46;6.90;99.90
25512;DHT22;13414;44.534;18.700;2023-02-28T09:29:13;7.10;99.90
25512;DHT22;13414;44.534;18.700;2023-02-28T09:31:42;7.30;1.00
25512;DHT22;13414;44.534;18.700;2023-02-28T09:34:10;7.60;1.00
25512;DHT22;13414;44.534;18.700;2023-02-28T09:36:39;7.70;1.00
25512;DHT22;13414;44.534;18.700;2023-02-28T09:39:08;7.60;1.00
25512;DHT22;13414;44.534;18.700;2023-02-28T09:41:39;7.90;99.90
25512;DHT22;13414;44.534;18.700;2023-02-28T09:44:17;7.80;99.90
25512;DHT22;13414;44.534;18.700;2023-02-28T09:46:49;7.90;99.90
25512;DHT22;13414;44.534;18.700;2023-02-28T09:49:21;7.90;1.00
25512;DHT22;13414;44.534;18.700;2023-02-28T09:51:56;7.90;1.00
25512;DHT22;13414;44.534;18.700;2023-02-28T09:54:28;7.50;99.90
25512;DHT22;13414;44.534;18.700;2023-02-28T09:57:00;7.60;99.90
25512;DHT22;13414;44.534;18.700;2023-02-28T09:59:39;7.70;1.00
25512;DHT22;13414;44.534;18.700;2023-02-28T10:02:23;7.70;48.40
25512;DHT22;13414;44.534;18.700;2023-02-28T10:04:59;8.00;1.00
25512;DHT22;13414;44.534;18.700;2023-02-28T10:07:44;8.20;99.90
25512;DHT22;13414;44.534;18.700;2023-02-28T10:10:20;8.40;1.00
25512;DHT22;13414;44.534;18.700;2023-02-28T10:12:51;8.10;1.00
25512;DHT22;13414;44.534;18.700;2023-02-28T10:15:21;8.00;1.00
25512;DHT22;13414;44.534;18.700;2023-02-28T10:17:54;8.00;99.90
25512;DHT22;13414;44.534;18.700;2023-02-28T10:20:24;7.80;53.50
25512;DHT22;13414;44.534;18.700;2023-02-28T10:23:03;7.80;99.90
25512;DHT22;13414;44.534;18.700;2023-02-28T10:25:35;7.90;99.90
25512;DHT22;13414;44.534;18.700;2023-02-28T10:28:10;7.90;1.00
25512;DHT22;13414;44.534;18.700;2023-02-28T10:30:40;7.80;1.00
25512;DHT22;13414;44.534;18.700;2023-02-28T10:33:19;7.70;44.50
25512;DHT22;13414;44.534;18.700;2023-02-28T10:35:47;7.70;1.00
25512;DHT22;13414;44.534;18.700;2023-02-28T10:38:19;7.70;99.90
25512;DHT22;13414;44.534;18.700;2023-02-28T10:40:47;7.70;1.00
25512;DHT22;13414;44.534;18.700;2023-02-28T10:43:21;7.80;1.00
25512;DHT22;13414;44.534;18.700;2023-02-28T10:46:04;7.80;1.00
25512;DHT22;13414;44.534;18.700;2023-02-28T10:48:38;8.00;1.00
25512;DHT22;13414;44.534;18.700;2023-02-28T10:51:07;8.20;1.00
25512;DHT22;13414;44.534;18.700;2023-02-28T10:53:47;8.40;1.00
25512;DHT22;13414;44.534;18.700;2023-02-28T10:56:17;8.50;99.90
25512;DHT22;13414;44.534;18.700;2023-02-28T10:58:53;8.50;99.90
25512;DHT22;13414;44.534;18.700;2023-02-28T11:01:22;8.40;99.90
25512;DHT22;13414;44.534;18.700;2023-02-28T11:03:50;8.50;99.90
25512;DHT22;13414;44.534;18.700;2023-02-28T11:06:20;8.80;99.90
25512;DHT22;13414;44.534;18.700;2023-02-28T11:08:52;9.00;99.90
25512;DHT22;13414;44.534;18.700;2023-02-28T11:11:21;8.80;67.30
25512;DHT22;13414;44.534;18.700;2023-02-28T11:13:52;8.50;99.90
25512;DHT22;13414;44.534;18.700;2023-02-28T11:16:21;8.20;99.90
25512;DHT22;13414;44.534;18.700;2023-02-28T11:18:50;8.10;99.90
25512;DHT22;13414;44.534;18.700;2023-02-28T11:21:22;7.70;1.00
25512;DHT22;13414;44.534;18.700;2023-02-28T11:23:56;7.40;1.00
25512;DHT22;13414;44.534;18.700;2023-02-28T11:26:41;7.30;1.00
25512;DHT22;13414;44.534;18.700;2023-02-28T11:29:21;7.40;1.00
25512;DHT22;13414;44.534;18.700;2023-02-28T11:32:18;7.30;1.00
25512;DHT22;13414;44.534;18.700;2023-02-28T11:34:45;7.10;1.00
25512;DHT22;13414;44.534;18.700;2023-02-28T11:37:15;7.00;1.00
25512;DHT22;13414;44.534;18.700;2023-02-28T11:39:46;6.90;1.00
25512;DHT22;13414;44.534;18.700;2023-02-28T11:45:21;6.70;1.00
25512;DHT22;13414;44.534;18.700;2023-02-28T11:47:57;6.90;1.00
25512;DHT22;13414;44.534;18.700;2023-02-28T11:50:40;6.80;1.00
25512;DHT22;13414;44.534;18.700;2023-02-28T11:53:17;6.80;99.80
25512;DHT22;13414;44.534;18.700;2023-02-28T11:55:53;6.80;55.90
25512;DHT22;13414;44.534;18.700;2023-02-28T11:58:41;6.70;99.90
25512;DHT22;13414;44.534;18.700;2023-02-28T12:01:22;6.60;99.90
25512;DHT22;13414;44.534;18.700;2023-02-28T12:04:01;6.50;1.00
25512;DHT22;13414;44.534;18.700;2023-02-28T12:06:36;6.50;1.00
25512;DHT22;13414;44.534;18.700;2023-02-28T12:09:17;6.60;1.00
25512;DHT22;13414;44.534;18.700;2023-02-28T12:11:53;6.60;1.00
25512;DHT22;13414;44.534;18.700;2023-02-28T12:15:05;6.70;1.00
25512;DHT22;13414;44.534;18.700;2023-02-28T12:17:50;6.70;1.00
25512;DHT22;13414;44.534;18.700;2023-02-28T12:20:27;6.60;99.90
25512;DHT22;13414;44.534;18.700;2023-02-28T12:23:11;6.50;99.90
25512;DHT22;13414;44.534;18.700;2023-02-28T12:25:53;6.30;1.00
25512;DHT22;13414;44.534;18.700;2023-02-28T12:28:28;6.20;29.70
25512;DHT22;13414;44.534;18.700;2023-02-28T12:30:59;6.20;99.90
25512;DHT22;13414;44.534;18.700;2023-02-28T12:33:33;6.30;99.90
25512;DHT22;13414;44.534;18.700;2023-02-28T12:36:05;6.20;99.90
25512;DHT22;13414;44.534;18.700;2023-02-28T12:38:41;6.20;1.00
25512;DHT22;13414;44.534;18.700;2023-02-28T12:41:13;5.90;47.00
25512;DHT22;13414;44.534;18.700;2023-02-28T12:43:46;5.80;99.90
25512;DHT22;13414;44.534;18.700;2023-02-28T12:46:17;5.50;1.00
25512;DHT22;13414;44.534;18.700;2023-02-28T12:48:48;5.40;1.00
25512;DHT22;13414;44.534;18.700;2023-02-28T12:51:17;5.40;99.90
25512;DHT22;13414;44.534;18.700;2023-02-28T12:53:58;5.20;1.00
25512;DHT22;13414;44.534;18.700;2023-02-28T12:56:36;5.30;99.90
25512;DHT22;13414;44.534;18.700;2023-02-28T12:59:14;5.40;99.90
25512;DHT22;13414;44.534;18.700;2023-02-28T13:02:09;5.30;99.90
25512;DHT22;13414;44.534;18.700;2023-02-28T13:05:01;5.20;99.90
25512;DHT22;13414;44.534;18.700;2023-02-28T13:07:51;5.10;99.90
25512;DHT22;13414;44.534;18.700;2023-02-28T13:10:24;5.00;99.90
25512;DHT22;13414;44.534;18.700;2023-02-28T13:12:53;5.00;99.90
25512;DHT22;13414;44.534;18.700;2023-02-28T13:15:26;5.10;99.90
25512;DHT22;13414;44.534;18.700;2023-02-28T13:17:56;4.90;99.90
25512;DHT22;13414;44.534;18.700;2023-02-28T13:20:25;4.80;99.90
25512;DHT22;13414;44.534;18.700;2023-02-28T13:22:54;4.60;99.90
25512;DHT22;13414;44.534;18.700;2023-02-28T13:25:53;4.60;99.90
25512;DHT22;13414;44.534;18.700;2023-02-28T13:31:26;4.40;99.90
25512;DHT22;13414;44.534;18.700;2023-02-28T13:34:15;4.60;99.90
25512;DHT22;13414;44.534;18.700;2023-02-28T13:36:42;4.80;99.90
25512;DHT22;13414;44.534;18.700;2023-02-28T13:39:47;5.00;99.90
25512;DHT22;13414;44.534;18.700;2023-02-28T13:42:33;5.20;99.90
25512;DHT22;13414;44.534;18.700;2023-02-28T13:45:24;5.30;99.90
25512;DHT22;13414;44.534;18.700;2023-02-28T13:47:55;5.30;99.90
25512;DHT22;13414;44.534;18.700;2023-02-28T13:50:28;5.30;99.90
25512;DHT22;13414;44.534;18.700;2023-02-28T13:56:05;5.00;99.90
25512;DHT22;13414;44.534;18.700;2023-02-28T13:58:46;5.00;99.90
25512;DHT22;13414;44.534;18.700;2023-02-28T14:01:24;5.10;99.90
25512;DHT22;13414;44.534;18.700;2023-02-28T14:06:48;5.20;99.90
25512;DHT22;13414;44.534;18.700;2023-02-28T14:09:21;5.30;99.90
25512;DHT22;13414;44.534;18.700;2023-02-28T14:11:50;5.30;99.90
25512;DHT22;13414;44.534;18.700;2023-02-28T14:14:55;5.10;99.90
25512;DHT22;13414;44.534;18.700;2023-02-28T14:17:25;5.00;99.90
25512;DHT22;13414;44.534;18.700;2023-02-28T14:19:55;4.90;99.90
25512;DHT22;13414;44.534;18.700;2023-02-28T14:22:47;4.70;99.90
25512;DHT22;13414;44.534;18.700;2023-02-28T14:25:23;4.60;99.90
25512;DHT22;13414;44.534;18.700;2023-02-28T14:28:02;4.50;99.90
25512;DHT22;13414;44.534;18.700;2023-02-28T14:30:57;4.60;99.90
25512;DHT22;13414;44.534;18.700;2023-02-28T14:33:45;4.70;99.90
25512;DHT22;13414;44.534;18.700;2023-02-28T14:36:18;4.70;99.90
25512;DHT22;13414;44.534;18.700;2023-02-28T14:38:51;4.60;99.90
25512;DHT22;13414;44.534;18.700;2023-02-28T14:41:31;4.60;99.90
25512;DHT22;13414;44.534;18.700;2023-02-28T14:44:02;4.50;99.90
25512;DHT22;13414;44.534;18.700;2023-02-28T14:46:35;4.30;99.90
25512;DHT22;13414;44.534;18.700;2023-02-28T14:49:04;4.40;99.90
25512;DHT22;13414;44.534;18.700;2023-02-28T14:51:36;4.50;99.90
25512;DHT22;13414;44.534;18.700;2023-02-28T14:54:05;4.50;99.90
25512;DHT22;13414;44.534;18.700;2023-02-28T14:56:36;4.50;99.90
25512;DHT22;13414;44.534;18.700;2023-02-28T14:59:18;4.50;99.90
25512;DHT22;13414;44.534;18.700;2023-02-28T15:02:15;4.40;99.90
25512;DHT22;13414;44.534;18.700;2023-02-28T15:05:30;4.40;99.90
25512;DHT22;13414;44.534;18.700;2023-02-28T15:08:10;4.20;99.90
25512;DHT22;13414;44.534;18.700;2023-02-28T15:10:57;4.10;99.90
25512;DHT22;13414;44.534;18.700;2023-02-28T15:13:36;4.10;99.90
25512;DHT22;13414;44.534;18.700;2023-02-28T15:16:12;4.00;99.90
25512;DHT22;13414;44.534;18.700;2023-02-28T15:18:48;4.00;99.90
25512;DHT22;13414;44.534;18.700;2023-02-28T15:21:18;4.00;99.90
25512;DHT22;13414;44.534;18.700;2023-02-28T15:23:54;3.90;99.90
25512;DHT22;13414;44.534;18.700;2023-02-28T15:26:27;3.80;99.90
25512;DHT22;13414;44.534;18.700;2023-02-28T15:29:00;3.90;99.90
25512;DHT22;13414;44.534;18.700;2023-02-28T15:31:31;3.90;99.90
25512;DHT22;13414;44.534;18.700;2023-02-28T15:34:12;3.90;99.90
25512;DHT22;13414;44.534;18.700;2023-02-28T15:36:44;4.00;99.90
25512;DHT22;13414;44.534;18.700;2023-02-28T15:39:25;3.80;99.90
25512;DHT22;13414;44.534;18.700;2023-02-28T15:42:09;3.70;99.90
25512;DHT22;13414;44.534;18.700;2023-02-28T15:44:40;3.60;99.90
25512;DHT22;13414;44.534;18.700;2023-02-28T15:47:17;3.50;99.90
25512;DHT22;13414;44.534;18.700;2023-02-28T15:49:52;3.40;1.00
25512;DHT22;13414;44.534;18.700;2023-02-28T15:52:24;3.20;1.00
25512;DHT22;13414;44.534;18.700;2023-02-28T15:54:55;3.30;1.00
25512;DHT22;13414;44.534;18.700;2023-02-28T15:57:27;3.30;1.00
25512;DHT22;13414;44.534;18.700;2023-02-28T15:59:57;3.30;1.00
25512;DHT22;13414;44.534;18.700;2023-02-28T16:02:38;3.30;99.90
25512;DHT22;13414;44.534;18.700;2023-02-28T16:05:21;3.30;99.90
25512;DHT22;13414;44.534;18.700;2023-02-28T16:07:54;3.40;1.00
25512;DHT22;13414;44.534;18.700;2023-02-28T16:10:24;3.50;1.00
25512;DHT22;13414;44.534;18.700;2023-02-28T16:12:54;3.60;1.00
25512;DHT22;13414;44.534;18.700;2023-02-28T16:15:24;3.60;99.90
25512;DHT22;13414;44.534;18.700;2023-02-28T16:17:52;3.50;99.90
25512;DHT22;13414;44.534;18.700;2023-02-28T16:20:21;3.40;1.00
25512;DHT22;13414;44.534;18.700;2023-02-28T16:22:50;3.30;99.90